Terminal Aerodrome Forecast
Issued by NWS

Home | Current Version | Previous Version | Graphics & Text | Print | Product List | Glossary On
Versions: 1 2 3 4 5 6 7 8 9 10 11 12 13 14 15 16
000
FTUS43 KICT 241125
TAFCNU
TAF
KCNU 241125Z 2412/2512 20007KT P6SM SCT120 BKN250
     FM242300 16007KT P6SM SCT250
     FM251000 13007KT P6SM VCSH SCT080 BKN250=

USA.gov is the U.S. government's official web portal to all federal, state and local government web resources and services.